La Palma > ESTACION METEOROLÓGICA Puntallana

DATOS ACTUALES Online

Ultima actulizacion 9 minutos

21.1 ºC

Temperatura

99

Humedad (%)

998.2

Presión (mb)

67.1

Precipitación (mm)

1.1 N

Viento (Km/h)

DATOS DIARIOS

Temperatura últimas 24 horas (ºC)

Humedad últimas 24 horas (%)

Presión atmosférica últimas 24 horas (mb)

Precipitaciones últimas 23 horas (mm)

Viento últimas 24 horas (Km/h)

Hora Temperatura (°C) ºC Precipitación (mm) mm Presión (mb) mb Humedad (%) % Viento (Km/h) km/h
24 - 22:00 22.2 1.3 1001 72 7.9 NW
24 - 23:00 22 1.3 1001 71 2.9 NNE
25 - 00:00 22.4 0 1001 76 2.6 NNE
25 - 01:00 21.9 0 1001 78 0.3 NNW
25 - 02:00 22.1 0 1001 74 2.1 N
25 - 03:00 21.8 0 1000 75 1.8 NW
25 - 04:00 21.9 0 1000 77 2.9 NNE
25 - 05:00 21.9 0 999 78 0 N
25 - 06:00 22.1 0 999 77 1.4 W
25 - 07:00 22.4 0 999 81 5 NW
25 - 08:00 20.8 0.5 1000 89 3.5 WSW
25 - 09:00 21.3 0.8 1000 85 2.9 WNW
25 - 10:00 21.4 1 1001 87 4 SW
25 - 11:00 20.6 4.6 1001 94 7.9 S
25 - 12:00 20 8.4 1001 96 2.9 SW
25 - 13:00 20.4 10.2 1000 96 0.3 NE
25 - 14:00 20.4 13.2 1000 97 2.1 NW
25 - 15:00 20.5 17 999 97 0 NE
25 - 16:00 20.5 21.6 998 98 1.4 NE
25 - 17:00 20.8 24.6 998 98 7.2 SSE
25 - 18:00 20.6 35.3 998 98 4.3 SSW
25 - 19:00 20.8 40.6 998 98 2.6 NE
25 - 20:00 21.1 48.3 998 99 4 WNW
25 - 21:00 21 59.9 998 99 3.5 SSW
25 - 22:00 21.1 67.1 998 99 1.1 N
Apalmet utiliza cookies propias y de terceros para mejorar la usabilidad y la experiencia web. Política de cookies.